sensor_id;sensor_type;location;lat;lon;timestamp;temperature;humidity
17442;DHT22;8838;50.144;8.176;2023-03-11T00:00:43;0.50;99.90
17442;DHT22;8838;50.144;8.176;2023-03-11T00:03:16;0.60;99.90
17442;DHT22;8838;50.144;8.176;2023-03-11T00:05:45;0.50;99.90
17442;DHT22;8838;50.144;8.176;2023-03-11T00:08:14;0.60;99.90
17442;DHT22;8838;50.144;8.176;2023-03-11T00:10:44;0.50;99.90
17442;DHT22;8838;50.144;8.176;2023-03-11T00:13:12;0.50;99.90
17442;DHT22;8838;50.144;8.176;2023-03-11T00:15:40;0.50;99.90
17442;DHT22;8838;50.144;8.176;2023-03-11T00:18:07;0.50;99.90
17442;DHT22;8838;50.144;8.176;2023-03-11T00:20:36;0.50;99.90
17442;DHT22;8838;50.144;8.176;2023-03-11T00:23:06;0.50;99.90
17442;DHT22;8838;50.144;8.176;2023-03-11T00:25:35;0.40;99.90
17442;DHT22;8838;50.144;8.176;2023-03-11T00:28:04;0.40;99.90
17442;DHT22;8838;50.144;8.176;2023-03-11T00:30:33;0.40;99.90
17442;DHT22;8838;50.144;8.176;2023-03-11T00:33:00;0.40;99.90
17442;DHT22;8838;50.144;8.176;2023-03-11T00:35:29;0.30;99.90
17442;DHT22;8838;50.144;8.176;2023-03-11T00:37:59;0.30;99.90
17442;DHT22;8838;50.144;8.176;2023-03-11T00:40:28;0.20;99.90
17442;DHT22;8838;50.144;8.176;2023-03-11T00:42:55;0.30;99.90
17442;DHT22;8838;50.144;8.176;2023-03-11T00:45:24;0.20;99.90
17442;DHT22;8838;50.144;8.176;2023-03-11T00:47:52;0.30;99.90
17442;DHT22;8838;50.144;8.176;2023-03-11T00:50:21;0.30;99.90
17442;DHT22;8838;50.144;8.176;2023-03-11T00:52:49;0.30;99.90
17442;DHT22;8838;50.144;8.176;2023-03-11T00:55:19;0.30;99.90
17442;DHT22;8838;50.144;8.176;2023-03-11T00:57:46;0.30;99.90
17442;DHT22;8838;50.144;8.176;2023-03-11T01:00:15;0.40;99.90
17442;DHT22;8838;50.144;8.176;2023-03-11T01:02:44;0.40;99.90
17442;DHT22;8838;50.144;8.176;2023-03-11T01:05:11;0.40;99.90
17442;DHT22;8838;50.144;8.176;2023-03-11T01:07:38;0.40;99.90
17442;DHT22;8838;50.144;8.176;2023-03-11T01:10:07;0.30;99.90
17442;DHT22;8838;50.144;8.176;2023-03-11T01:12:34;0.40;99.90
17442;DHT22;8838;50.144;8.176;2023-03-11T01:15:01;0.30;99.90
17442;DHT22;8838;50.144;8.176;2023-03-11T01:17:28;0.30;99.90
17442;DHT22;8838;50.144;8.176;2023-03-11T01:19:56;0.30;99.90
17442;DHT22;8838;50.144;8.176;2023-03-11T01:22:23;0.30;99.90
17442;DHT22;8838;50.144;8.176;2023-03-11T01:24:50;0.30;99.90
17442;DHT22;8838;50.144;8.176;2023-03-11T01:27:16;0.20;99.90
17442;DHT22;8838;50.144;8.176;2023-03-11T01:29:43;0.30;99.90
17442;DHT22;8838;50.144;8.176;2023-03-11T01:32:10;0.30;99.90
17442;DHT22;8838;50.144;8.176;2023-03-11T01:34:41;0.20;99.90
17442;DHT22;8838;50.144;8.176;2023-03-11T01:37:09;0.20;99.90
17442;DHT22;8838;50.144;8.176;2023-03-11T01:39:36;0.20;99.90
17442;DHT22;8838;50.144;8.176;2023-03-11T01:42:04;0.30;99.90
17442;DHT22;8838;50.144;8.176;2023-03-11T01:44:32;0.30;99.90
17442;DHT22;8838;50.144;8.176;2023-03-11T01:47:37;0.40;99.90
17442;DHT22;8838;50.144;8.176;2023-03-11T01:50:08;0.40;99.90
17442;DHT22;8838;50.144;8.176;2023-03-11T01:52:40;0.40;99.90
17442;DHT22;8838;50.144;8.176;2023-03-11T01:55:08;0.40;99.90
17442;DHT22;8838;50.144;8.176;2023-03-11T01:57:37;0.40;99.90
17442;DHT22;8838;50.144;8.176;2023-03-11T02:00:09;0.40;99.90
17442;DHT22;8838;50.144;8.176;2023-03-11T02:02:42;0.40;99.90
17442;DHT22;8838;50.144;8.176;2023-03-11T02:05:11;0.50;99.90
17442;DHT22;8838;50.144;8.176;2023-03-11T02:07:40;0.40;99.90
17442;DHT22;8838;50.144;8.176;2023-03-11T02:10:08;0.40;99.90
17442;DHT22;8838;50.144;8.176;2023-03-11T02:12:36;0.40;99.90
17442;DHT22;8838;50.144;8.176;2023-03-11T02:15:04;0.40;99.90
17442;DHT22;8838;50.144;8.176;2023-03-11T02:17:33;0.30;99.90
17442;DHT22;8838;50.144;8.176;2023-03-11T02:20:20;0.30;99.90
17442;DHT22;8838;50.144;8.176;2023-03-11T02:22:51;0.40;99.90
17442;DHT22;8838;50.144;8.176;2023-03-11T02:25:26;0.30;99.90
17442;DHT22;8838;50.144;8.176;2023-03-11T02:27:58;0.30;99.90
17442;DHT22;8838;50.144;8.176;2023-03-11T02:30:28;0.30;99.90
17442;DHT22;8838;50.144;8.176;2023-03-11T02:32:57;0.30;99.90
17442;DHT22;8838;50.144;8.176;2023-03-11T02:35:28;0.30;99.90
17442;DHT22;8838;50.144;8.176;2023-03-11T02:37:56;0.30;99.90
17442;DHT22;8838;50.144;8.176;2023-03-11T02:40:47;0.30;99.90
17442;DHT22;8838;50.144;8.176;2023-03-11T02:43:18;0.20;99.90
17442;DHT22;8838;50.144;8.176;2023-03-11T02:45:47;0.20;99.90
17442;DHT22;8838;50.144;8.176;2023-03-11T02:48:15;0.20;99.90
17442;DHT22;8838;50.144;8.176;2023-03-11T02:50:46;0.20;99.90
17442;DHT22;8838;50.144;8.176;2023-03-11T02:53:13;0.20;99.90
17442;DHT22;8838;50.144;8.176;2023-03-11T02:55:40;0.10;99.90
17442;DHT22;8838;50.144;8.176;2023-03-11T02:58:07;0.10;99.90
17442;DHT22;8838;50.144;8.176;2023-03-11T03:00:36;0.10;99.90
17442;DHT22;8838;50.144;8.176;2023-03-11T03:03:03;0.00;99.90
17442;DHT22;8838;50.144;8.176;2023-03-11T03:05:30;0.00;99.90
17442;DHT22;8838;50.144;8.176;2023-03-11T03:07:57;0.00;99.90
17442;DHT22;8838;50.144;8.176;2023-03-11T03:10:24;0.00;99.90
17442;DHT22;8838;50.144;8.176;2023-03-11T03:12:51;0.00;99.90
17442;DHT22;8838;50.144;8.176;2023-03-11T03:15:18;0.00;99.90
17442;DHT22;8838;50.144;8.176;2023-03-11T03:17:46;0.00;99.90
17442;DHT22;8838;50.144;8.176;2023-03-11T03:20:16;0.00;99.90
17442;DHT22;8838;50.144;8.176;2023-03-11T03:22:43;0.10;99.90
17442;DHT22;8838;50.144;8.176;2023-03-11T03:25:10;0.10;99.90
17442;DHT22;8838;50.144;8.176;2023-03-11T03:27:38;0.10;99.90
17442;DHT22;8838;50.144;8.176;2023-03-11T03:30:06;0.20;99.90
17442;DHT22;8838;50.144;8.176;2023-03-11T03:32:33;0.20;99.90
17442;DHT22;8838;50.144;8.176;2023-03-11T03:35:02;0.10;99.90
17442;DHT22;8838;50.144;8.176;2023-03-11T03:37:33;0.10;99.90
17442;DHT22;8838;50.144;8.176;2023-03-11T03:40:00;0.10;99.90
17442;DHT22;8838;50.144;8.176;2023-03-11T03:42:31;0.10;99.90
17442;DHT22;8838;50.144;8.176;2023-03-11T03:44:58;0.10;99.90
17442;DHT22;8838;50.144;8.176;2023-03-11T03:47:25;0.10;99.90
17442;DHT22;8838;50.144;8.176;2023-03-11T03:49:52;0.10;99.90
17442;DHT22;8838;50.144;8.176;2023-03-11T03:52:20;0.10;99.90
17442;DHT22;8838;50.144;8.176;2023-03-11T03:54:47;0.10;99.90
17442;DHT22;8838;50.144;8.176;2023-03-11T03:57:14;0.10;99.90
17442;DHT22;8838;50.144;8.176;2023-03-11T03:59:40;0.10;99.90
17442;DHT22;8838;50.144;8.176;2023-03-11T04:02:07;0.10;99.90
17442;DHT22;8838;50.144;8.176;2023-03-11T04:04:34;0.10;99.90
17442;DHT22;8838;50.144;8.176;2023-03-11T04:07:03;0.10;99.90
17442;DHT22;8838;50.144;8.176;2023-03-11T04:09:31;0.10;99.90
17442;DHT22;8838;50.144;8.176;2023-03-11T04:11:58;0.10;99.90
17442;DHT22;8838;50.144;8.176;2023-03-11T04:14:25;0.10;99.90
17442;DHT22;8838;50.144;8.176;2023-03-11T04:16:52;0.10;99.90
17442;DHT22;8838;50.144;8.176;2023-03-11T04:19:19;0.20;99.90
17442;DHT22;8838;50.144;8.176;2023-03-11T04:21:46;0.10;99.90
17442;DHT22;8838;50.144;8.176;2023-03-11T04:24:13;0.20;99.90
17442;DHT22;8838;50.144;8.176;2023-03-11T04:26:41;0.20;99.90
17442;DHT22;8838;50.144;8.176;2023-03-11T04:29:08;0.10;99.90
17442;DHT22;8838;50.144;8.176;2023-03-11T04:31:35;0.10;99.90
17442;DHT22;8838;50.144;8.176;2023-03-11T04:34:02;0.10;99.90
17442;DHT22;8838;50.144;8.176;2023-03-11T04:36:28;0.10;99.90
17442;DHT22;8838;50.144;8.176;2023-03-11T04:38:56;0.20;99.90
17442;DHT22;8838;50.144;8.176;2023-03-11T04:41:23;0.20;99.90
17442;DHT22;8838;50.144;8.176;2023-03-11T04:43:51;0.30;99.90
17442;DHT22;8838;50.144;8.176;2023-03-11T04:46:19;0.20;99.90
17442;DHT22;8838;50.144;8.176;2023-03-11T04:48:45;0.20;99.90
17442;DHT22;8838;50.144;8.176;2023-03-11T04:51:12;0.20;99.90
17442;DHT22;8838;50.144;8.176;2023-03-11T04:53:39;0.20;99.90
17442;DHT22;8838;50.144;8.176;2023-03-11T04:56:06;0.10;99.90
17442;DHT22;8838;50.144;8.176;2023-03-11T04:58:33;0.20;99.90
17442;DHT22;8838;50.144;8.176;2023-03-11T05:01:01;0.20;99.90
17442;DHT22;8838;50.144;8.176;2023-03-11T05:03:28;0.10;99.90
17442;DHT22;8838;50.144;8.176;2023-03-11T05:05:55;0.10;99.90
17442;DHT22;8838;50.144;8.176;2023-03-11T05:08:23;0.10;99.90
17442;DHT22;8838;50.144;8.176;2023-03-11T05:10:50;0.10;99.90
17442;DHT22;8838;50.144;8.176;2023-03-11T05:13:18;0.10;99.90
17442;DHT22;8838;50.144;8.176;2023-03-11T05:15:45;0.00;99.90
17442;DHT22;8838;50.144;8.176;2023-03-11T05:18:16;0.00;99.90
17442;DHT22;8838;50.144;8.176;2023-03-11T05:20:43;-0.10;99.90
17442;DHT22;8838;50.144;8.176;2023-03-11T05:23:12;0.00;99.90
17442;DHT22;8838;50.144;8.176;2023-03-11T05:25:38;0.00;99.90
17442;DHT22;8838;50.144;8.176;2023-03-11T05:28:06;-0.10;99.90
17442;DHT22;8838;50.144;8.176;2023-03-11T05:30:33;-0.10;99.90
17442;DHT22;8838;50.144;8.176;2023-03-11T05:33:00;-0.20;99.90
17442;DHT22;8838;50.144;8.176;2023-03-11T05:35:28;-0.20;99.90
17442;DHT22;8838;50.144;8.176;2023-03-11T05:37:55;-0.20;99.90
17442;DHT22;8838;50.144;8.176;2023-03-11T05:40:22;-0.20;99.90
17442;DHT22;8838;50.144;8.176;2023-03-11T05:42:49;-0.30;99.90
17442;DHT22;8838;50.144;8.176;2023-03-11T05:45:16;-0.30;99.90
17442;DHT22;8838;50.144;8.176;2023-03-11T05:47:43;-0.30;99.90
17442;DHT22;8838;50.144;8.176;2023-03-11T05:50:11;-0.40;99.90
17442;DHT22;8838;50.144;8.176;2023-03-11T05:52:39;-0.40;99.90
17442;DHT22;8838;50.144;8.176;2023-03-11T05:55:07;-0.40;99.90
17442;DHT22;8838;50.144;8.176;2023-03-11T05:57:35;-0.40;99.90
17442;DHT22;8838;50.144;8.176;2023-03-11T06:00:04;-0.40;99.90
17442;DHT22;8838;50.144;8.176;2023-03-11T06:02:31;-0.40;99.90
17442;DHT22;8838;50.144;8.176;2023-03-11T06:04:58;-0.50;99.90
17442;DHT22;8838;50.144;8.176;2023-03-11T06:07:25;-0.50;99.90
17442;DHT22;8838;50.144;8.176;2023-03-11T06:09:53;-0.60;99.90
17442;DHT22;8838;50.144;8.176;2023-03-11T06:12:20;-0.70;99.90
17442;DHT22;8838;50.144;8.176;2023-03-11T06:14:47;-0.70;99.90
17442;DHT22;8838;50.144;8.176;2023-03-11T06:17:14;-0.70;99.90
17442;DHT22;8838;50.144;8.176;2023-03-11T06:19:41;-0.70;99.90
17442;DHT22;8838;50.144;8.176;2023-03-11T06:22:08;-0.70;99.90
17442;DHT22;8838;50.144;8.176;2023-03-11T06:24:35;-0.60;99.90
17442;DHT22;8838;50.144;8.176;2023-03-11T06:27:03;-0.60;99.90
17442;DHT22;8838;50.144;8.176;2023-03-11T06:29:30;-0.70;99.90
17442;DHT22;8838;50.144;8.176;2023-03-11T06:31:57;-0.70;99.90
17442;DHT22;8838;50.144;8.176;2023-03-11T06:34:24;-0.60;99.90
17442;DHT22;8838;50.144;8.176;2023-03-11T06:36:51;-0.50;99.90
17442;DHT22;8838;50.144;8.176;2023-03-11T06:39:19;-0.50;99.90
17442;DHT22;8838;50.144;8.176;2023-03-11T06:41:46;-0.50;99.90
17442;DHT22;8838;50.144;8.176;2023-03-11T06:44:14;-0.50;99.90
17442;DHT22;8838;50.144;8.176;2023-03-11T06:46:41;-0.60;99.90
17442;DHT22;8838;50.144;8.176;2023-03-11T06:49:08;-0.60;99.90
17442;DHT22;8838;50.144;8.176;2023-03-11T06:51:34;-0.50;99.90
17442;DHT22;8838;50.144;8.176;2023-03-11T06:54:03;-0.60;99.90
17442;DHT22;8838;50.144;8.176;2023-03-11T06:56:30;-0.60;99.90
17442;DHT22;8838;50.144;8.176;2023-03-11T06:58:57;-0.40;99.90
17442;DHT22;8838;50.144;8.176;2023-03-11T07:01:25;-0.30;99.90
17442;DHT22;8838;50.144;8.176;2023-03-11T07:03:53;-0.30;99.90
17442;DHT22;8838;50.144;8.176;2023-03-11T07:06:22;-0.20;99.90
17442;DHT22;8838;50.144;8.176;2023-03-11T07:08:50;-0.10;99.90
17442;DHT22;8838;50.144;8.176;2023-03-11T07:11:19;-0.10;99.90
17442;DHT22;8838;50.144;8.176;2023-03-11T07:13:46;0.00;99.90
17442;DHT22;8838;50.144;8.176;2023-03-11T07:16:15;0.10;99.90
17442;DHT22;8838;50.144;8.176;2023-03-11T07:18:45;0.20;99.90
17442;DHT22;8838;50.144;8.176;2023-03-11T07:21:14;0.30;99.90
17442;DHT22;8838;50.144;8.176;2023-03-11T07:23:41;0.40;99.90
17442;DHT22;8838;50.144;8.176;2023-03-11T07:26:09;0.50;99.90
17442;DHT22;8838;50.144;8.176;2023-03-11T07:28:36;0.60;99.90
17442;DHT22;8838;50.144;8.176;2023-03-11T07:31:07;0.80;99.90
17442;DHT22;8838;50.144;8.176;2023-03-11T07:33:34;1.00;99.90
17442;DHT22;8838;50.144;8.176;2023-03-11T07:36:09;1.10;99.90
17442;DHT22;8838;50.144;8.176;2023-03-11T07:38:37;1.20;99.90
17442;DHT22;8838;50.144;8.176;2023-03-11T07:41:05;1.30;99.90
17442;DHT22;8838;50.144;8.176;2023-03-11T07:43:32;1.40;99.90
17442;DHT22;8838;50.144;8.176;2023-03-11T07:46:04;1.60;99.90
17442;DHT22;8838;50.144;8.176;2023-03-11T07:48:32;1.80;99.90
17442;DHT22;8838;50.144;8.176;2023-03-11T07:51:03;1.90;99.90
17442;DHT22;8838;50.144;8.176;2023-03-11T07:53:32;2.00;99.90
17442;DHT22;8838;50.144;8.176;2023-03-11T07:55:59;2.20;99.90
17442;DHT22;8838;50.144;8.176;2023-03-11T07:58:26;2.60;99.90
17442;DHT22;8838;50.144;8.176;2023-03-11T08:00:53;3.00;99.90
17442;DHT22;8838;50.144;8.176;2023-03-11T08:03:21;3.00;99.90
17442;DHT22;8838;50.144;8.176;2023-03-11T08:05:49;2.90;99.90
17442;DHT22;8838;50.144;8.176;2023-03-11T08:08:16;2.70;99.90
17442;DHT22;8838;50.144;8.176;2023-03-11T08:10:44;2.40;99.90
17442;DHT22;8838;50.144;8.176;2023-03-11T08:13:11;2.60;99.90
17442;DHT22;8838;50.144;8.176;2023-03-11T08:15:38;2.90;99.90
17442;DHT22;8838;50.144;8.176;2023-03-11T08:18:07;3.10;99.90
17442;DHT22;8838;50.144;8.176;2023-03-11T08:20:36;3.30;99.90
17442;DHT22;8838;50.144;8.176;2023-03-11T08:23:03;3.50;99.90
17442;DHT22;8838;50.144;8.176;2023-03-11T08:25:30;3.50;99.90
17442;DHT22;8838;50.144;8.176;2023-03-11T08:27:58;3.20;99.90
17442;DHT22;8838;50.144;8.176;2023-03-11T08:30:25;3.30;99.90
17442;DHT22;8838;50.144;8.176;2023-03-11T08:32:51;3.50;99.90
17442;DHT22;8838;50.144;8.176;2023-03-11T08:35:18;3.70;99.90
17442;DHT22;8838;50.144;8.176;2023-03-11T08:37:45;4.00;99.90
17442;DHT22;8838;50.144;8.176;2023-03-11T08:40:12;3.90;99.90
17442;DHT22;8838;50.144;8.176;2023-03-11T08:42:40;4.10;99.90
17442;DHT22;8838;50.144;8.176;2023-03-11T08:45:09;4.30;99.90
17442;DHT22;8838;50.144;8.176;2023-03-11T08:47:37;4.40;99.90
17442;DHT22;8838;50.144;8.176;2023-03-11T08:50:06;4.50;99.90
17442;DHT22;8838;50.144;8.176;2023-03-11T08:52:33;4.30;99.90
17442;DHT22;8838;50.144;8.176;2023-03-11T08:55:00;4.20;99.90
17442;DHT22;8838;50.144;8.176;2023-03-11T08:57:29;4.50;99.90
17442;DHT22;8838;50.144;8.176;2023-03-11T08:59:56;4.40;99.90
17442;DHT22;8838;50.144;8.176;2023-03-11T09:02:25;4.30;99.90
17442;DHT22;8838;50.144;8.176;2023-03-11T09:04:52;4.10;99.90
17442;DHT22;8838;50.144;8.176;2023-03-11T09:07:18;4.40;99.90
17442;DHT22;8838;50.144;8.176;2023-03-11T09:09:46;4.70;99.90
17442;DHT22;8838;50.144;8.176;2023-03-11T09:12:12;5.20;99.90
17442;DHT22;8838;50.144;8.176;2023-03-11T09:14:39;5.50;99.90
17442;DHT22;8838;50.144;8.176;2023-03-11T09:17:06;6.40;99.90
17442;DHT22;8838;50.144;8.176;2023-03-11T09:19:35;7.30;99.90
17442;DHT22;8838;50.144;8.176;2023-03-11T09:22:03;8.20;99.90
17442;DHT22;8838;50.144;8.176;2023-03-11T09:24:32;8.20;99.90
17442;DHT22;8838;50.144;8.176;2023-03-11T09:26:59;8.30;99.90
17442;DHT22;8838;50.144;8.176;2023-03-11T09:29:26;7.90;99.90
17442;DHT22;8838;50.144;8.176;2023-03-11T09:31:53;7.40;99.90
17442;DHT22;8838;50.144;8.176;2023-03-11T09:34:19;5.90;99.90
17442;DHT22;8838;50.144;8.176;2023-03-11T09:36:48;4.80;99.90
17442;DHT22;8838;50.144;8.176;2023-03-11T09:39:15;4.00;99.90
17442;DHT22;8838;50.144;8.176;2023-03-11T09:41:47;3.30;99.90
17442;DHT22;8838;50.144;8.176;2023-03-11T09:44:18;2.80;99.90
17442;DHT22;8838;50.144;8.176;2023-03-11T09:47:14;2.50;99.90
17442;DHT22;8838;50.144;8.176;2023-03-11T09:49:59;2.20;99.90
17442;DHT22;8838;50.144;8.176;2023-03-11T09:52:36;1.90;99.90
17442;DHT22;8838;50.144;8.176;2023-03-11T09:55:20;1.90;99.90
17442;DHT22;8838;50.144;8.176;2023-03-11T09:57:47;1.80;99.90
17442;DHT22;8838;50.144;8.176;2023-03-11T10:00:17;1.90;99.90
17442;DHT22;8838;50.144;8.176;2023-03-11T10:02:45;2.00;99.90
17442;DHT22;8838;50.144;8.176;2023-03-11T10:05:15;3.30;99.90
17442;DHT22;8838;50.144;8.176;2023-03-11T10:07:54;5.20;99.90
17442;DHT22;8838;50.144;8.176;2023-03-11T10:10:24;5.70;99.90
17442;DHT22;8838;50.144;8.176;2023-03-11T10:13:05;5.60;99.90
17442;DHT22;8838;50.144;8.176;2023-03-11T10:15:41;5.00;99.90
17442;DHT22;8838;50.144;8.176;2023-03-11T10:18:29;4.50;99.90
17442;DHT22;8838;50.144;8.176;2023-03-11T10:21:03;4.00;99.90
17442;DHT22;8838;50.144;8.176;2023-03-11T10:23:43;3.90;99.90
17442;DHT22;8838;50.144;8.176;2023-03-11T10:26:16;4.20;99.90
17442;DHT22;8838;50.144;8.176;2023-03-11T10:28:47;4.90;99.90
17442;DHT22;8838;50.144;8.176;2023-03-11T10:31:20;5.30;99.90
17442;DHT22;8838;50.144;8.176;2023-03-11T10:33:53;6.20;99.90
17442;DHT22;8838;50.144;8.176;2023-03-11T10:36:23;5.80;99.90
17442;DHT22;8838;50.144;8.176;2023-03-11T10:38:54;5.30;99.90
17442;DHT22;8838;50.144;8.176;2023-03-11T10:41:25;4.50;99.90
17442;DHT22;8838;50.144;8.176;2023-03-11T10:44:00;4.00;99.90
17442;DHT22;8838;50.144;8.176;2023-03-11T10:46:29;3.60;99.90
17442;DHT22;8838;50.144;8.176;2023-03-11T10:48:56;3.50;99.90
17442;DHT22;8838;50.144;8.176;2023-03-11T10:51:23;3.40;99.90
17442;DHT22;8838;50.144;8.176;2023-03-11T10:53:56;3.30;99.90
17442;DHT22;8838;50.144;8.176;2023-03-11T10:56:26;3.20;99.90
17442;DHT22;8838;50.144;8.176;2023-03-11T10:58:53;3.10;99.90
17442;DHT22;8838;50.144;8.176;2023-03-11T11:01:21;3.20;99.90
17442;DHT22;8838;50.144;8.176;2023-03-11T11:03:50;3.20;99.90
17442;DHT22;8838;50.144;8.176;2023-03-11T11:06:20;3.00;99.90
17442;DHT22;8838;50.144;8.176;2023-03-11T11:08:48;2.90;99.90
17442;DHT22;8838;50.144;8.176;2023-03-11T11:11:22;2.80;99.90
17442;DHT22;8838;50.144;8.176;2023-03-11T11:13:56;2.90;99.90
17442;DHT22;8838;50.144;8.176;2023-03-11T11:16:23;3.00;99.90
17442;DHT22;8838;50.144;8.176;2023-03-11T11:18:54;3.00;99.90
17442;DHT22;8838;50.144;8.176;2023-03-11T11:21:30;3.00;99.90
17442;DHT22;8838;50.144;8.176;2023-03-11T11:24:09;3.00;99.90
17442;DHT22;8838;50.144;8.176;2023-03-11T11:26:39;3.00;99.90
17442;DHT22;8838;50.144;8.176;2023-03-11T11:29:13;3.00;99.90
17442;DHT22;8838;50.144;8.176;2023-03-11T11:31:42;3.10;99.90
17442;DHT22;8838;50.144;8.176;2023-03-11T11:34:31;3.30;99.90
17442;DHT22;8838;50.144;8.176;2023-03-11T11:36:59;3.80;99.90
17442;DHT22;8838;50.144;8.176;2023-03-11T11:39:29;3.90;99.90
17442;DHT22;8838;50.144;8.176;2023-03-11T11:42:00;4.00;99.90
17442;DHT22;8838;50.144;8.176;2023-03-11T11:44:30;3.90;99.90
17442;DHT22;8838;50.144;8.176;2023-03-11T11:47:01;3.90;99.90
17442;DHT22;8838;50.144;8.176;2023-03-11T11:49:30;3.80;99.90
17442;DHT22;8838;50.144;8.176;2023-03-11T11:52:07;3.60;99.90
17442;DHT22;8838;50.144;8.176;2023-03-11T11:54:37;3.40;99.90
17442;DHT22;8838;50.144;8.176;2023-03-11T11:57:12;3.30;99.90
17442;DHT22;8838;50.144;8.176;2023-03-11T11:59:39;3.20;99.90
17442;DHT22;8838;50.144;8.176;2023-03-11T12:02:28;3.20;99.90
17442;DHT22;8838;50.144;8.176;2023-03-11T12:05:06;3.20;99.90
17442;DHT22;8838;50.144;8.176;2023-03-11T12:10:26;3.20;99.90
17442;DHT22;8838;50.144;8.176;2023-03-11T12:15:59;3.30;99.90
17442;DHT22;8838;50.144;8.176;2023-03-11T12:18:33;3.40;99.90
17442;DHT22;8838;50.144;8.176;2023-03-11T12:21:06;3.60;99.90
17442;DHT22;8838;50.144;8.176;2023-03-11T12:23:41;3.80;99.90
17442;DHT22;8838;50.144;8.176;2023-03-11T12:26:17;4.00;99.90
17442;DHT22;8838;50.144;8.176;2023-03-11T12:28:49;4.20;99.90
17442;DHT22;8838;50.144;8.176;2023-03-11T12:31:24;4.40;99.90
17442;DHT22;8838;50.144;8.176;2023-03-11T12:33:56;4.70;99.90
17442;DHT22;8838;50.144;8.176;2023-03-11T12:36:28;5.10;99.90
17442;DHT22;8838;50.144;8.176;2023-03-11T12:38:57;5.60;99.90
17442;DHT22;8838;50.144;8.176;2023-03-11T12:41:30;6.20;99.90
17442;DHT22;8838;50.144;8.176;2023-03-11T12:44:03;6.10;99.90
17442;DHT22;8838;50.144;8.176;2023-03-11T12:47:02;5.70;99.90
17442;DHT22;8838;50.144;8.176;2023-03-11T12:49:31;5.10;99.90
17442;DHT22;8838;50.144;8.176;2023-03-11T12:52:05;4.70;99.90
17442;DHT22;8838;50.144;8.176;2023-03-11T12:54:43;4.60;99.90
17442;DHT22;8838;50.144;8.176;2023-03-11T12:57:27;4.30;99.90
17442;DHT22;8838;50.144;8.176;2023-03-11T13:00:18;4.10;99.90
17442;DHT22;8838;50.144;8.176;2023-03-11T13:03:25;3.80;99.90
17442;DHT22;8838;50.144;8.176;2023-03-11T13:05:59;3.70;99.90
17442;DHT22;8838;50.144;8.176;2023-03-11T13:08:34;3.60;99.90
17442;DHT22;8838;50.144;8.176;2023-03-11T13:11:32;3.60;99.90
17442;DHT22;8838;50.144;8.176;2023-03-11T13:14:25;3.50;99.90
17442;DHT22;8838;50.144;8.176;2023-03-11T13:16:53;3.40;99.90
17442;DHT22;8838;50.144;8.176;2023-03-11T13:19:47;3.40;99.90
17442;DHT22;8838;50.144;8.176;2023-03-11T13:22:42;3.40;99.90
17442;DHT22;8838;50.144;8.176;2023-03-11T13:25:30;3.30;99.90
17442;DHT22;8838;50.144;8.176;2023-03-11T13:28:12;3.30;99.90
17442;DHT22;8838;50.144;8.176;2023-03-11T13:30:47;3.40;99.90
17442;DHT22;8838;50.144;8.176;2023-03-11T13:33:28;3.50;99.90
17442;DHT22;8838;50.144;8.176;2023-03-11T13:36:08;3.50;99.90
17442;DHT22;8838;50.144;8.176;2023-03-11T13:41:30;3.70;99.90
17442;DHT22;8838;50.144;8.176;2023-03-11T13:44:12;3.90;99.90
17442;DHT22;8838;50.144;8.176;2023-03-11T13:46:41;4.10;99.90
17442;DHT22;8838;50.144;8.176;2023-03-11T13:49:23;4.30;99.90
17442;DHT22;8838;50.144;8.176;2023-03-11T13:51:52;4.50;99.90
17442;DHT22;8838;50.144;8.176;2023-03-11T13:54:41;4.60;99.90
17442;DHT22;8838;50.144;8.176;2023-03-11T13:57:22;4.70;99.90
17442;DHT22;8838;50.144;8.176;2023-03-11T13:59:53;4.60;99.90
17442;DHT22;8838;50.144;8.176;2023-03-11T14:02:21;4.60;99.90
17442;DHT22;8838;50.144;8.176;2023-03-11T14:04:50;4.60;99.90
17442;DHT22;8838;50.144;8.176;2023-03-11T14:07:23;4.60;99.90
17442;DHT22;8838;50.144;8.176;2023-03-11T14:09:51;4.60;99.90
17442;DHT22;8838;50.144;8.176;2023-03-11T14:12:17;4.40;99.90
17442;DHT22;8838;50.144;8.176;2023-03-11T14:14:50;4.30;99.90
17442;DHT22;8838;50.144;8.176;2023-03-11T14:17:21;4.20;99.90
17442;DHT22;8838;50.144;8.176;2023-03-11T14:20:05;4.20;99.90
17442;DHT22;8838;50.144;8.176;2023-03-11T14:22:33;4.30;99.90
17442;DHT22;8838;50.144;8.176;2023-03-11T14:25:06;4.30;99.90
17442;DHT22;8838;50.144;8.176;2023-03-11T14:27:34;4.20;99.90
17442;DHT22;8838;50.144;8.176;2023-03-11T14:30:01;4.40;99.90
17442;DHT22;8838;50.144;8.176;2023-03-11T14:32:31;4.50;99.90
17442;DHT22;8838;50.144;8.176;2023-03-11T14:34:59;4.60;99.90
17442;DHT22;8838;50.144;8.176;2023-03-11T14:37:31;4.80;99.90
17442;DHT22;8838;50.144;8.176;2023-03-11T14:39:59;5.00;99.90
17442;DHT22;8838;50.144;8.176;2023-03-11T14:42:27;5.10;99.90
17442;DHT22;8838;50.144;8.176;2023-03-11T14:44:58;5.00;99.90
17442;DHT22;8838;50.144;8.176;2023-03-11T14:47:33;5.10;99.90
17442;DHT22;8838;50.144;8.176;2023-03-11T14:50:05;5.00;99.90
17442;DHT22;8838;50.144;8.176;2023-03-11T14:52:36;5.10;99.90
17442;DHT22;8838;50.144;8.176;2023-03-11T14:55:13;5.10;99.90
17442;DHT22;8838;50.144;8.176;2023-03-11T14:57:44;5.20;99.90
17442;DHT22;8838;50.144;8.176;2023-03-11T15:00:17;5.30;99.90
17442;DHT22;8838;50.144;8.176;2023-03-11T15:03:14;5.30;99.90
17442;DHT22;8838;50.144;8.176;2023-03-11T15:05:48;5.30;99.90
17442;DHT22;8838;50.144;8.176;2023-03-11T15:08:21;5.20;99.90
17442;DHT22;8838;50.144;8.176;2023-03-11T15:11:19;5.20;99.90
17442;DHT22;8838;50.144;8.176;2023-03-11T15:13:49;5.00;99.90
17442;DHT22;8838;50.144;8.176;2023-03-11T15:16:24;4.80;99.90
17442;DHT22;8838;50.144;8.176;2023-03-11T15:18:57;4.70;99.90
17442;DHT22;8838;50.144;8.176;2023-03-11T15:21:26;4.80;99.90
17442;DHT22;8838;50.144;8.176;2023-03-11T15:23:58;5.20;99.90
17442;DHT22;8838;50.144;8.176;2023-03-11T15:26:30;5.60;99.90
17442;DHT22;8838;50.144;8.176;2023-03-11T15:29:00;5.80;99.90
17442;DHT22;8838;50.144;8.176;2023-03-11T15:31:36;5.90;99.90
17442;DHT22;8838;50.144;8.176;2023-03-11T15:34:31;6.10;99.90
17442;DHT22;8838;50.144;8.176;2023-03-11T15:37:16;6.30;99.90
17442;DHT22;8838;50.144;8.176;2023-03-11T15:39:46;6.50;99.90
17442;DHT22;8838;50.144;8.176;2023-03-11T15:42:22;6.70;99.90
17442;DHT22;8838;50.144;8.176;2023-03-11T15:45:23;6.90;99.90
17442;DHT22;8838;50.144;8.176;2023-03-11T15:47:51;7.10;99.90
17442;DHT22;8838;50.144;8.176;2023-03-11T15:50:22;6.90;99.90
17442;DHT22;8838;50.144;8.176;2023-03-11T15:52:53;7.00;99.90
17442;DHT22;8838;50.144;8.176;2023-03-11T15:55:25;7.00;99.90
17442;DHT22;8838;50.144;8.176;2023-03-11T15:58:01;6.90;99.90
17442;DHT22;8838;50.144;8.176;2023-03-11T16:00:28;6.60;99.90
17442;DHT22;8838;50.144;8.176;2023-03-11T16:02:57;6.20;99.90
17442;DHT22;8838;50.144;8.176;2023-03-11T16:05:36;6.10;99.90
17442;DHT22;8838;50.144;8.176;2023-03-11T16:08:08;6.00;99.90
17442;DHT22;8838;50.144;8.176;2023-03-11T16:10:35;5.80;99.90
17442;DHT22;8838;50.144;8.176;2023-03-11T16:13:09;5.50;99.90
17442;DHT22;8838;50.144;8.176;2023-03-11T16:15:37;5.20;99.90
17442;DHT22;8838;50.144;8.176;2023-03-11T16:18:06;5.00;99.90
17442;DHT22;8838;50.144;8.176;2023-03-11T16:20:40;4.90;99.90
17442;DHT22;8838;50.144;8.176;2023-03-11T16:23:17;4.60;99.90
17442;DHT22;8838;50.144;8.176;2023-03-11T16:25:45;4.50;99.90
17442;DHT22;8838;50.144;8.176;2023-03-11T16:28:16;4.40;99.90
17442;DHT22;8838;50.144;8.176;2023-03-11T16:30:44;4.30;99.90